createdAt,value
2023-03-01T09:01:25.631Z,86.30
2023-03-01T09:04:54.835Z,86.20
2023-03-01T09:07:29.641Z,85.90
2023-03-01T09:10:09.151Z,84.40
2023-03-01T09:12:40.350Z,83.40
2023-03-01T09:15:11.690Z,83.30
2023-03-01T09:17:41.160Z,82.60
2023-03-01T09:20:13.801Z,82.10
2023-03-01T09:22:43.551Z,82.10
2023-03-01T09:25:16.626Z,82.00
2023-03-01T09:27:49.522Z,81.50
2023-03-01T09:30:23.460Z,81.70
2023-03-01T09:32:56.573Z,81.70
2023-03-01T09:35:27.885Z,82.30
2023-03-01T09:38:03.882Z,82.60
2023-03-01T09:40:42.893Z,82.90
2023-03-01T09:43:29.341Z,83.20
2023-03-01T09:46:09.366Z,82.90
2023-03-01T09:48:52.182Z,83.10
2023-03-01T09:51:34.930Z,83.20
2023-03-01T09:54:17.210Z,83.30
2023-03-01T09:57:22.050Z,83.70
2023-03-01T10:00:24.220Z,83.70
2023-03-01T10:03:16.922Z,83.70
2023-03-01T10:06:09.395Z,83.90
2023-03-01T10:09:02.023Z,83.60
2023-03-01T10:11:40.383Z,83.30
2023-03-01T10:14:37.784Z,83.40
2023-03-01T10:17:27.439Z,83.90
2023-03-01T10:20:19.218Z,83.70
2023-03-01T10:22:59.025Z,84.20
2023-03-01T10:26:08.342Z,84.50
2023-03-01T10:29:08.148Z,84.00
2023-03-01T10:31:49.507Z,84.00
2023-03-01T10:34:38.310Z,84.00
2023-03-01T10:37:20.376Z,84.40
2023-03-01T10:40:09.579Z,84.70
2023-03-01T10:42:54.393Z,84.00
2023-03-01T10:45:42.456Z,84.50
2023-03-01T10:48:20.746Z,84.60
2023-03-01T10:51:10.357Z,84.40
2023-03-01T10:53:54.538Z,84.00
2023-03-01T10:56:27.036Z,84.10
2023-03-01T10:59:39.247Z,84.00
2023-03-01T11:02:27.722Z,84.10
2023-03-01T11:05:16.551Z,83.70
2023-03-01T11:08:07.015Z,83.80
2023-03-01T11:10:43.224Z,83.80
2023-03-01T11:13:21.536Z,84.00
2023-03-01T11:16:07.816Z,83.90
2023-03-01T11:19:04.446Z,83.40
2023-03-01T11:21:42.805Z,82.40
2023-03-01T11:24:18.621Z,83.30
2023-03-01T11:26:55.612Z,83.80
2023-03-01T11:29:47.691Z,84.20
2023-03-01T11:32:36.122Z,84.20
2023-03-01T11:35:33.709Z,83.40
2023-03-01T11:38:24.539Z,83.60
2023-03-01T11:41:12.302Z,83.20
2023-03-01T11:44:00.194Z,82.20
2023-03-01T11:46:57.564Z,82.20
2023-03-01T11:50:06.481Z,81.80
2023-03-01T11:52:59.145Z,79.40
2023-03-01T11:55:57.008Z,80.20
2023-03-01T11:59:03.467Z,81.20
2023-03-01T12:02:06.003Z,81.30
2023-03-01T12:05:27.260Z,81.00
2023-03-01T12:08:09.863Z,80.00
2023-03-01T12:11:00.746Z,80.30
2023-03-01T12:14:25.866Z,80.60
2023-03-01T12:17:29.085Z,81.10
2023-03-01T12:20:39.302Z,81.10
2023-03-01T12:24:09.224Z,81.40
2023-03-01T12:27:02.549Z,81.40
2023-03-01T12:29:48.533Z,81.00
2023-03-01T12:32:56.840Z,80.60
2023-03-01T12:36:09.393Z,80.90
2023-03-01T12:38:52.952Z,79.10
2023-03-01T12:41:57.002Z,76.60
2023-03-01T12:44:57.778Z,77.70
2023-03-01T12:47:52.296Z,79.90
2023-03-01T12:50:35.268Z,78.90
2023-03-01T12:53:23.368Z,79.70
2023-03-01T12:56:13.503Z,79.30
2023-03-01T12:59:08.007Z,79.20
2023-03-01T13:02:08.380Z,79.10
2023-03-01T13:05:06.846Z,79.70
2023-03-01T13:08:00.780Z,79.80
2023-03-01T13:10:55.456Z,80.00
2023-03-01T13:14:01.869Z,79.80
2023-03-01T13:16:46.609Z,80.30
2023-03-01T13:19:34.140Z,78.20
2023-03-01T13:22:39.758Z,79.20
2023-03-01T13:25:32.021Z,78.30
2023-03-01T13:29:06.114Z,78.10
2023-03-01T13:32:48.188Z,77.00
2023-03-01T13:35:52.417Z,77.80
2023-03-01T13:39:00.239Z,77.70
2023-03-01T13:42:02.228Z,76.40
2023-03-01T13:44:42.007Z,77.60
2023-03-01T13:47:52.883Z,77.10
2023-03-01T13:50:42.715Z,77.10
2023-03-01T13:53:29.685Z,79.60
2023-03-01T13:56:22.536Z,78.50
2023-03-01T13:58:58.105Z,78.70
2023-03-01T14:01:43.910Z,78.40
2023-03-01T14:04:38.834Z,78.60
2023-03-01T14:07:25.578Z,75.00
2023-03-01T14:10:23.155Z,76.50
2023-03-01T14:13:19.294Z,76.30
2023-03-01T14:16:17.043Z,74.30
2023-03-01T14:19:32.656Z,73.50
2023-03-01T14:22:32.450Z,73.60
2023-03-01T14:25:24.550Z,71.00
2023-03-01T14:28:07.238Z,71.70
2023-03-01T14:30:52.016Z,71.40
2023-03-01T14:33:34.721Z,68.30
2023-03-01T14:36:15.824Z,66.40
2023-03-01T14:39:32.020Z,66.00
2023-03-01T14:42:16.792Z,65.10
2023-03-01T14:45:07.192Z,66.70
2023-03-01T14:47:50.939Z,64.80
2023-03-01T14:50:29.614Z,63.80
2023-03-01T14:53:14.418Z,63.30
2023-03-01T14:56:05.151Z,63.80
2023-03-01T14:59:19.708Z,62.30
2023-03-01T15:01:57.176Z,63.40
2023-03-01T15:04:35.234Z,60.50
2023-03-01T15:07:26.942Z,59.60
2023-03-01T15:10:00.310Z,59.20
2023-03-01T15:13:01.416Z,59.40
2023-03-01T15:15:47.753Z,58.60
2023-03-01T15:18:41.343Z,59.10
2023-03-01T15:21:25.908Z,58.70
2023-03-01T15:24:09.094Z,58.70
2023-03-01T15:26:59.057Z,57.70
2023-03-01T15:29:43.545Z,57.30
2023-03-01T15:32:34.186Z,54.80
2023-03-01T15:35:47.018Z,56.50
2023-03-01T15:38:36.477Z,54.50
2023-03-01T15:41:32.797Z,55.30
2023-03-01T15:44:26.185Z,53.70
2023-03-01T15:47:08.421Z,54.90
2023-03-01T15:49:56.106Z,54.70
2023-03-01T15:52:38.117Z,55.30
2023-03-01T15:55:33.920Z,55.00
2023-03-01T15:58:22.949Z,53.70
2023-03-01T16:01:04.050Z,53.40
2023-03-01T16:03:51.205Z,53.60
2023-03-01T16:06:27.446Z,53.50
2023-03-01T16:09:10.104Z,53.80
2023-03-01T16:11:44.778Z,53.50
2023-03-01T16:14:55.444Z,53.10
2023-03-01T16:17:39.882Z,52.80
2023-03-01T16:20:28.841Z,52.70
2023-03-01T16:23:05.283Z,51.90
2023-03-01T16:25:40.108Z,52.50
2023-03-01T16:28:15.838Z,52.80
2023-03-01T16:31:07.364Z,53.20
2023-03-01T16:33:50.780Z,53.90
2023-03-01T16:36:40.274Z,54.40
2023-03-01T16:39:20.418Z,54.30
2023-03-01T16:42:03.586Z,54.80
2023-03-01T16:44:46.207Z,55.00
2023-03-01T16:47:43.270Z,55.40
2023-03-01T16:50:31.119Z,55.80
2023-03-01T16:53:46.366Z,56.30
2023-03-01T16:56:25.475Z,57.20
2023-03-01T16:59:06.395Z,57.00
2023-03-01T17:01:51.226Z,57.40
2023-03-01T17:04:42.589Z,57.80
2023-03-01T17:07:19.964Z,58.30
2023-03-01T17:10:00.276Z,58.50
2023-03-01T17:12:33.876Z,59.10
2023-03-01T17:15:07.891Z,59.10
2023-03-01T17:18:04.253Z,59.70
2023-03-01T17:20:53.087Z,60.00
2023-03-01T17:23:44.213Z,60.30
2023-03-01T17:26:50.659Z,61.30
2023-03-01T17:29:32.386Z,62.10
2023-03-01T17:32:24.587Z,62.00
2023-03-01T17:34:59.476Z,62.10
2023-03-01T17:37:30.802Z,63.10
2023-03-01T17:40:22.672Z,63.20
2023-03-01T17:42:59.179Z,63.80
2023-03-01T17:45:48.050Z,63.60
2023-03-01T17:48:48.073Z,64.00
2023-03-01T17:51:44.967Z,64.30
2023-03-01T17:54:19.748Z,64.70
2023-03-01T17:57:10.565Z,64.90
2023-03-01T17:59:54.833Z,65.20
2023-03-01T18:02:46.138Z,66.00
2023-03-01T18:05:42.282Z,65.80
2023-03-01T18:08:25.131Z,66.40
2023-03-01T18:11:12.578Z,66.40
2023-03-01T18:13:55.794Z,67.00
2023-03-01T18:16:44.366Z,67.00
2023-03-01T18:19:18.140Z,68.30
2023-03-01T18:22:08.253Z,68.10
2023-03-01T18:24:43.521Z,68.10
2023-03-01T18:27:15.876Z,68.10
2023-03-01T18:30:05.651Z,68.50
2023-03-01T18:32:57.447Z,68.50
2023-03-01T18:35:39.682Z,69.00
2023-03-01T18:38:24.526Z,68.60
2023-03-01T18:41:16.189Z,68.60
2023-03-01T18:44:09.590Z,68.90
2023-03-01T18:46:49.423Z,69.10
2023-03-01T18:49:27.667Z,69.00
2023-03-01T18:52:18.910Z,69.10
2023-03-01T18:55:07.702Z,69.10
2023-03-01T18:57:45.442Z,69.30
2023-03-01T19:00:47.831Z,69.50
2023-03-01T19:03:26.206Z,69.70
2023-03-01T19:06:02.257Z,70.10
2023-03-01T19:08:43.459Z,70.40
2023-03-01T19:11:40.936Z,69.70
2023-03-01T19:14:27.688Z,70.20
2023-03-01T19:17:18.337Z,69.80
2023-03-01T19:20:00.673Z,70.50
2023-03-01T19:23:18.197Z,70.40
2023-03-01T19:26:02.747Z,71.80
2023-03-01T19:28:38.396Z,70.80
2023-03-01T19:31:14.473Z,71.00
2023-03-01T19:34:10.895Z,71.30
2023-03-01T19:36:58.999Z,71.80
2023-03-01T19:39:54.817Z,71.50
2023-03-01T19:42:51.347Z,73.20
2023-03-01T19:45:33.574Z,71.50
2023-03-01T19:48:32.506Z,71.80
2023-03-01T19:51:21.324Z,71.80
2023-03-01T19:54:08.332Z,71.90
2023-03-01T19:56:52.731Z,72.30
2023-03-01T19:59:54.347Z,72.80
2023-03-01T20:02:35.678Z,72.10
2023-03-01T20:05:22.662Z,72.30
2023-03-01T20:08:07.364Z,73.00
2023-03-01T20:10:48.559Z,73.80
2023-03-01T20:13:37.235Z,73.60
2023-03-01T20:16:29.612Z,74.00
2023-03-01T20:19:12.245Z,73.70
2023-03-01T20:21:46.680Z,74.20
2023-03-01T20:24:34.409Z,74.40
2023-03-01T20:27:08.397Z,74.10
2023-03-01T20:30:15.881Z,74.00
2023-03-01T20:33:14.868Z,74.00
2023-03-01T20:35:46.813Z,73.70
2023-03-01T20:38:35.191Z,73.90
2023-03-01T20:41:12.194Z,74.10
2023-03-01T20:43:54.632Z,74.60
2023-03-01T20:46:48.878Z,74.50
2023-03-01T20:49:42.322Z,75.30
2023-03-01T20:52:14.322Z,74.50
2023-03-01T20:55:00.087Z,74.30
2023-03-01T20:57:50.527Z,74.50
2023-03-01T21:00:35.242Z,74.60
2023-03-01T21:03:32.144Z,74.70
2023-03-01T21:06:17.502Z,75.30
2023-03-01T21:09:01.212Z,74.60
2023-03-01T21:11:33.022Z,74.80
2023-03-01T21:14:32.266Z,75.60
2023-03-01T21:17:28.160Z,75.10
2023-03-01T21:20:18.442Z,75.20
2023-03-01T21:23:07.998Z,76.00
2023-03-01T21:25:42.900Z,75.30
2023-03-01T21:28:33.774Z,75.30
2023-03-01T21:31:24.537Z,75.10
2023-03-01T21:33:59.992Z,75.30
2023-03-01T21:36:48.347Z,75.30
2023-03-01T21:39:22.831Z,76.10
2023-03-01T21:42:08.045Z,75.90
2023-03-01T21:44:41.104Z,75.30
2023-03-01T21:47:36.573Z,75.70
2023-03-01T21:50:09.273Z,76.30
2023-03-01T21:52:44.903Z,76.50
2023-03-01T21:55:15.538Z,76.30
2023-03-01T21:58:21.251Z,76.70
2023-03-01T22:01:00.203Z,76.50
2023-03-01T22:03:45.972Z,77.40
2023-03-01T22:06:59.290Z,77.00
2023-03-01T22:09:41.347Z,76.70
2023-03-01T22:12:27.960Z,76.70
2023-03-01T22:15:24.985Z,76.80
2023-03-01T22:17:56.061Z,76.70
2023-03-01T22:20:35.692Z,76.60
2023-03-01T22:23:26.050Z,76.70
2023-03-01T22:26:25.867Z,76.70
2023-03-01T22:29:16.481Z,77.60
2023-03-01T22:32:09.212Z,77.60
2023-03-01T22:35:01.630Z,77.60
2023-03-01T22:37:44.911Z,77.30
2023-03-01T22:40:22.390Z,77.40
2023-03-01T22:43:14.957Z,77.60
2023-03-01T22:46:05.535Z,77.60
2023-03-01T22:48:40.134Z,77.80
2023-03-01T22:51:30.225Z,77.60
2023-03-01T22:54:26.582Z,77.80
2023-03-01T22:57:10.705Z,77.40
2023-03-01T22:59:51.392Z,77.80
2023-03-01T23:02:39.678Z,78.60
2023-03-01T23:05:23.273Z,78.00
2023-03-01T23:08:14.372Z,77.60
2023-03-01T23:11:02.199Z,78.20
2023-03-01T23:13:42.777Z,78.20
2023-03-01T23:16:45.876Z,78.40
2023-03-01T23:19:39.505Z,79.00
2023-03-01T23:22:24.297Z,78.80
2023-03-01T23:25:03.928Z,78.40
2023-03-01T23:27:41.148Z,78.40
2023-03-01T23:30:22.156Z,78.60
2023-03-01T23:32:55.126Z,79.30
2023-03-01T23:35:43.239Z,79.60
2023-03-01T23:38:49.139Z,79.50
2023-03-01T23:41:42.523Z,79.50
2023-03-01T23:44:30.238Z,79.60
2023-03-01T23:47:11.603Z,79.10
2023-03-01T23:50:20.877Z,79.30
2023-03-01T23:53:01.003Z,81.00
2023-03-01T23:55:52.888Z,79.30
2023-03-01T23:58:29.107Z,79.90
